Archival Weather

Sydney Intl

Sydney, Australia (YSSY)

Report from: Wednesday, September 20, 2023 6:00 AM AEST
Current time: Saturday, June 22, 2024 10:44 AM AEST

Current weather – Weather history – Daily summaries
Weather forecast

Temperature23.0°C (73.4°F)
Dew point3.0°C (37.4°F)
Winds 13 kts (6.7 m/s, 15 mph) North-Northwest (330°)
Clouds Sky clear
Altimeter29.83 in.Hg (1010 mB)
Relative humidity27 %
Density altitude1,155 ft. (352 m)
Remarks Ceiling and visibility OK
Flight conditions Visual Meteorological Conditions
Raw dataYSSY 192000Z 33013KT CAVOK 23/03 Q1010
An error has occurred. This application may no longer respond until reloaded. Reload 🗙